Time;durP1;ratioP1;P1;durP2;ratioP2;P2;SDS_P1;SDS_P2;PMS_P1;PMS_P2;Temp;Humidity;BMP_temperature;BMP_pressure;BME280_temperature;BME280_humidity;BME280_pressure;Samples;Min_cycle;Max_cycle;Signal;HPM_P1;HPM_P2
2022/03/05 00:00:20;;;;;;;12.73;6.95;;;-0.30;99.90;;;;;;5033583;28;20102;-72
2022/03/05 00:02:46;;;;;;;14.82;7.10;;;-0.30;99.90;;;;;;5038153;28;20045;-72
2022/03/05 00:05:13;;;;;;;11.48;6.00;;;-0.30;99.90;;;;;;5040475;28;20042;-72
2022/03/05 00:07:39;;;;;;;14.32;7.82;;;-0.30;99.90;;;;;;5041325;28;20052;-72
2022/03/05 00:10:05;;;;;;;13.40;6.82;;;-0.40;99.90;;;;;;5034767;28;20417;-72
2022/03/05 00:12:30;;;;;;;13.63;6.75;;;-0.40;99.90;;;;;;5069937;28;20051;-71
2022/03/05 00:14:56;;;;;;;14.60;6.80;;;-0.40;99.90;;;;;;5035789;28;20052;-71
2022/03/05 00:17:22;;;;;;;13.85;6.40;;;-0.40;99.90;;;;;;5041519;28;20052;-72
2022/03/05 00:19:48;;;;;;;14.63;6.60;;;-0.40;99.90;;;;;;5038752;28;20047;-72
2022/03/05 00:22:13;;;;;;;12.00;6.45;;;-0.40;99.90;;;;;;5041282;28;20392;-71
2022/03/05 00:24:39;;;;;;;12.63;6.28;;;-0.40;99.90;;;;;;5040659;28;20045;-72
2022/03/05 00:27:04;;;;;;;13.48;7.35;;;-0.40;99.90;;;;;;5035563;28;20048;-72
2022/03/05 00:29:30;;;;;;;11.40;6.05;;;-0.40;99.90;;;;;;5040490;28;20473;-71
2022/03/05 00:31:56;;;;;;;13.48;6.45;;;-0.40;99.90;;;;;;5035020;28;20041;-71
2022/03/05 00:34:22;;;;;;;12.40;6.53;;;-0.40;99.90;;;;;;5038141;28;20081;-72
2022/03/05 00:36:47;;;;;;;12.00;6.30;;;-0.50;99.90;;;;;;5034806;28;20091;-72
2022/03/05 00:39:13;;;;;;;13.45;6.70;;;-0.40;99.90;;;;;;5068365;28;20069;-72
2022/03/05 00:41:39;;;;;;;13.43;6.75;;;-0.50;99.90;;;;;;5035386;28;20056;-72
2022/03/05 00:44:05;;;;;;;17.13;6.22;;;-0.50;99.90;;;;;;5039139;28;20056;-72
2022/03/05 00:46:30;;;;;;;13.70;6.43;;;-0.50;99.90;;;;;;5040255;28;20434;-71
2022/03/05 00:48:56;;;;;;;12.23;6.30;;;-0.50;99.90;;;;;;5016983;28;20054;-72
2022/03/05 00:51:21;;;;;;;14.68;7.22;;;-0.50;99.90;;;;;;5011272;28;20457;-71
2022/03/05 00:53:47;;;;;;;12.02;6.57;;;-0.30;99.90;;;;;;5017598;28;20496;-71
2022/03/05 00:56:13;;;;;;;14.05;5.65;;;-0.50;99.90;;;;;;5017831;28;20062;-71
2022/03/05 00:58:38;;;;;;;12.95;6.82;;;-0.60;99.90;;;;;;5019415;28;20046;-71
2022/03/05 01:01:04;;;;;;;14.80;6.78;;;-0.60;99.90;;;;;;5021926;28;20041;-72
2022/03/05 01:03:29;;;;;;;13.48;6.60;;;-0.60;99.90;;;;;;5022040;28;20073;-72
2022/03/05 01:05:55;;;;;;;12.13;6.07;;;-0.60;99.90;;;;;;5020763;28;20041;-72
2022/03/05 01:08:21;;;;;;;13.73;6.80;;;-0.60;99.90;;;;;;5013184;28;20145;-71
2022/03/05 01:10:46;;;;;;;14.95;6.85;;;-0.70;99.90;;;;;;5019346;28;20128;-72
2022/03/05 01:13:12;;;;;;;12.02;6.63;;;-0.70;99.90;;;;;;5019643;28;20099;-72
2022/03/05 01:15:38;;;;;;;14.10;7.05;;;-0.50;99.90;;;;;;5022367;28;20111;-71
2022/03/05 01:18:03;;;;;;;15.40;6.72;;;-0.70;99.90;;;;;;5019874;28;20516;-71
2022/03/05 01:20:30;;;;;;;12.80;6.50;;;-0.70;99.90;;;;;;5022749;28;20096;-72
2022/03/05 01:22:55;;;;;;;17.15;7.28;;;-0.70;99.90;;;;;;5014470;28;20125;-72
2022/03/05 01:25:21;;;;;;;14.32;6.57;;;-0.80;99.90;;;;;;5021398;28;20136;-71
2022/03/05 01:27:46;;;;;;;14.25;6.50;;;-0.80;99.90;;;;;;5020484;28;20068;-71
2022/03/05 01:30:12;;;;;;;14.85;5.80;;;-0.80;99.90;;;;;;5020234;28;20083;-72
2022/03/05 01:32:38;;;;;;;12.23;6.15;;;-0.80;99.90;;;;;;5016296;28;20505;-71
2022/03/05 01:35:04;;;;;;;17.35;6.78;;;-0.80;99.90;;;;;;5017611;28;20053;-71
2022/03/05 01:37:30;;;;;;;14.45;7.53;;;-0.80;99.90;;;;;;5018060;28;20046;-71
2022/03/05 01:39:56;;;;;;;15.63;6.75;;;-0.70;99.90;;;;;;5023683;28;20099;-72
2022/03/05 01:42:23;;;;;;;15.60;7.07;;;0.00;99.90;;;;;;5019860;28;20034;-71
2022/03/05 01:44:49;;;;;;;14.55;6.88;;;-0.90;99.90;;;;;;5019284;28;20125;-71
2022/03/05 01:47:14;;;;;;;14.63;6.93;;;-1.50;99.90;;;;;;5026368;28;20152;-71
2022/03/05 01:49:40;;;;;;;12.82;6.30;;;-0.70;99.90;;;;;;5035590;28;20052;-71
2022/03/05 01:52:06;;;;;;;18.23;6.80;;;-0.90;99.90;;;;;;5035547;28;20041;-72
2022/03/05 01:54:32;;;;;;;13.82;7.10;;;-0.90;99.90;;;;;;5040197;28;20041;-72
2022/03/05 01:56:59;;;;;;;16.35;7.78;;;-0.90;99.90;;;;;;5037500;28;20128;-71
2022/03/05 01:59:25;;;;;;;14.70;6.80;;;-0.90;99.90;;;;;;5071013;28;20068;-71
2022/03/05 02:01:51;;;;;;;14.07;7.22;;;-0.90;99.90;;;;;;5041415;28;20518;-72
2022/03/05 02:04:17;;;;;;;12.52;6.22;;;-0.90;99.90;;;;;;5077198;28;20119;-72
2022/03/05 02:06:42;;;;;;;17.60;7.88;;;-0.90;99.90;;;;;;5046663;28;20041;-72
2022/03/05 02:09:08;;;;;;;14.80;7.60;;;-0.90;99.90;;;;;;5042470;28;20047;-71
2022/03/05 02:11:33;;;;;;;15.55;7.18;;;-0.90;99.90;;;;;;5043226;28;20084;-71
2022/03/05 02:13:59;;;;;;;13.57;6.88;;;-0.90;99.90;;;;;;5038219;28;20076;-72
2022/03/05 02:16:25;;;;;;;16.40;8.20;;;-1.00;99.90;;;;;;5040429;28;20110;-72
2022/03/05 02:18:55;;;;;;;13.77;6.00;;;-1.00;99.90;;;;;;5035116;28;20475;-71
2022/03/05 02:21:25;;;;;;;17.55;7.22;;;-1.00;99.90;;;;;;5038399;28;20460;-71
2022/03/05 02:23:51;;;;;;;17.17;6.88;;;-1.00;99.90;;;;;;5036196;28;20044;-71
2022/03/05 02:26:17;;;;;;;13.25;7.05;;;-1.00;99.90;;;;;;5074544;28;20041;-72
2022/03/05 02:28:43;;;;;;;13.77;7.13;;;-1.00;99.90;;;;;;5041606;28;20567;-72
2022/03/05 02:31:08;;;;;;;14.05;6.85;;;-1.00;99.90;;;;;;5043054;28;20132;-71
2022/03/05 02:33:34;;;;;;;11.82;6.47;;;-1.00;99.90;;;;;;5035329;28;20053;-72
2022/03/05 02:36:00;;;;;;;14.48;7.00;;;-1.00;99.90;;;;;;5036924;28;20485;-71
2022/03/05 02:38:26;;;;;;;16.02;7.03;;;-1.00;99.90;;;;;;5038525;28;20048;-72
2022/03/05 02:40:52;;;;;;;11.95;6.53;;;-1.10;99.90;;;;;;5040709;28;20053;-72
2022/03/05 02:43:21;;;;;;;13.80;6.47;;;-1.10;99.90;;;;;;5041643;28;20071;-71
2022/03/05 02:45:47;;;;;;;16.02;7.03;;;-1.10;99.90;;;;;;5077431;28;20037;-72
2022/03/05 02:48:14;;;;;;;14.43;7.88;;;-1.10;99.90;;;;;;5037810;28;20129;-72
2022/03/05 02:50:41;;;;;;;13.00;6.40;;;-1.10;99.90;;;;;;5035699;28;20049;-71
2022/03/05 02:53:07;;;;;;;12.73;6.25;;;-1.10;99.90;;;;;;5033384;28;20084;-72
2022/03/05 02:55:34;;;;;;;13.23;6.63;;;-0.80;99.90;;;;;;5070224;28;20080;-71
2022/03/05 02:57:59;;;;;;;12.70;6.40;;;-1.10;99.90;;;;;;5073197;28;20048;-72
2022/03/05 03:00:26;;;;;;;12.02;6.50;;;-1.10;99.90;;;;;;5045665;28;20432;-71
2022/03/05 03:02:52;;;;;;;12.32;6.53;;;-1.10;99.90;;;;;;5046996;28;20043;-72
2022/03/05 03:05:18;;;;;;;14.10;6.30;;;-0.40;99.90;;;;;;5039433;28;20096;-72
2022/03/05 03:07:44;;;;;;;15.38;6.85;;;-1.10;99.90;;;;;;5070257;28;20049;-71
2022/03/05 03:10:12;;;;;;;14.05;6.57;;;-1.10;99.90;;;;;;5068061;28;20467;-72
2022/03/05 03:12:38;;;;;;;12.60;6.80;;;-1.10;99.90;;;;;;5043238;28;20052;-71
2022/03/05 03:15:06;;;;;;;14.70;6.65;;;-1.10;99.90;;;;;;5076686;28;20407;-72
2022/03/05 03:17:45;;;;;;;13.57;6.78;;;-1.10;99.90;;;;;;5039601;28;20084;-72
2022/03/05 03:20:13;;;;;;;13.15;6.05;;;-1.10;99.90;;;;;;5037508;28;20053;-71
2022/03/05 03:22:39;;;;;;;14.02;6.28;;;-1.10;99.90;;;;;;5041220;28;20042;-72
2022/03/05 03:25:07;;;;;;;12.77;6.60;;;-1.10;99.90;;;;;;5071943;28;20069;-72
2022/03/05 03:27:33;;;;;;;13.60;6.38;;;-1.10;99.90;;;;;;5046682;28;20055;-72
2022/03/05 03:29:58;;;;;;;13.95;6.07;;;-1.10;99.90;;;;;;5033860;28;20080;-71
2022/03/05 03:32:24;;;;;;;12.07;6.20;;;-1.10;99.90;;;;;;5036924;28;20397;-72
2022/03/05 03:34:50;;;;;;;14.07;6.30;;;-1.10;99.90;;;;;;5036321;28;20080;-71
2022/03/05 03:37:15;;;;;;;14.18;6.72;;;-1.10;99.90;;;;;;5037819;28;20091;-71
2022/03/05 03:39:41;;;;;;;13.90;7.03;;;-1.10;99.90;;;;;;5033826;28;20049;-72
2022/03/05 03:42:07;;;;;;;13.18;6.32;;;-1.10;99.90;;;;;;5041653;28;20037;-72
2022/03/05 03:44:33;;;;;;;13.60;6.75;;;-1.10;99.90;;;;;;5039505;28;20037;-71
2022/03/05 03:46:59;;;;;;;14.88;7.38;;;-1.10;99.90;;;;;;5041006;28;20524;-71
2022/03/05 03:49:24;;;;;;;14.93;5.85;;;-0.90;99.90;;;;;;5045772;28;20052;-72
2022/03/05 03:51:50;;;;;;;12.80;5.82;;;-1.10;99.90;;;;;;5037456;28;20060;-71
2022/03/05 03:54:16;;;;;;;12.73;6.53;;;-1.10;99.90;;;;;;5056832;28;20084;-71
2022/03/05 03:56:42;;;;;;;13.25;6.53;;;-1.20;99.90;;;;;;5043843;28;20145;-72
2022/03/05 03:59:08;;;;;;;13.30;6.35;;;-1.20;99.90;;;;;;5045723;28;20060;-71
2022/03/05 04:01:33;;;;;;;16.17;7.22;;;-1.20;99.90;;;;;;5080667;28;20093;-72
2022/03/05 04:03:59;;;;;;;14.15;6.35;;;-1.30;99.90;;;;;;5045405;28;20072;-71
2022/03/05 04:06:25;;;;;;;14.68;6.50;;;-1.30;99.90;;;;;;5043195;28;20132;-71
2022/03/05 04:08:50;;;;;;;15.10;6.72;;;-1.30;99.90;;;;;;5044870;28;20040;-71
2022/03/05 04:11:18;;;;;;;12.18;6.20;;;-1.30;99.90;;;;;;5044129;28;20159;-71
2022/03/05 04:13:47;;;;;;;14.90;7.20;;;-1.40;99.90;;;;;;5054716;28;20107;-71
2022/03/05 04:16:14;;;;;;;13.10;6.75;;;-1.40;99.90;;;;;;5038572;28;20436;-72
2022/03/05 04:18:40;;;;;;;14.32;6.97;;;-1.40;99.90;;;;;;5055661;28;20041;-71
2022/03/05 04:21:09;;;;;;;15.98;7.82;;;-1.40;99.90;;;;;;5057591;28;20472;-71
2022/03/05 04:23:35;;;;;;;13.93;6.65;;;-1.50;99.90;;;;;;5035933;28;20048;-71
2022/03/05 04:26:01;;;;;;;17.15;7.80;;;-1.50;99.90;;;;;;5040390;28;20131;-72
2022/03/05 04:28:26;;;;;;;20.40;7.38;;;-1.50;99.90;;;;;;5038921;28;20139;-72
2022/03/05 04:30:52;;;;;;;12.93;6.63;;;-1.50;99.90;;;;;;5039079;28;20057;-72
2022/03/05 04:33:18;;;;;;;16.80;7.35;;;-1.60;99.90;;;;;;5043697;28;20055;-72
2022/03/05 04:35:44;;;;;;;14.45;6.35;;;-1.60;99.90;;;;;;5060224;28;20564;-71
2022/03/05 04:38:10;;;;;;;13.35;6.63;;;-1.50;99.90;;;;;;5037410;28;20131;-71
2022/03/05 04:40:35;;;;;;;16.08;7.25;;;-1.60;99.90;;;;;;5042684;28;20068;-72
2022/03/05 04:43:01;;;;;;;13.88;6.88;;;-1.60;99.90;;;;;;5039013;28;20477;-71
2022/03/05 04:45:27;;;;;;;14.82;6.88;;;-1.60;99.90;;;;;;5037328;28;20052;-71
2022/03/05 04:47:53;;;;;;;15.77;7.38;;;-1.60;99.90;;;;;;5042697;28;20421;-71
2022/03/05 04:50:18;;;;;;;19.63;7.88;;;-1.60;99.90;;;;;;5033978;28;20436;-71
2022/03/05 04:52:44;;;;;;;16.40;7.30;;;-1.60;99.90;;;;;;5038017;28;20049;-72
2022/03/05 04:55:10;;;;;;;14.48;7.47;;;-1.60;99.90;;;;;;5042118;28;20473;-71
2022/03/05 04:57:36;;;;;;;14.05;7.28;;;-1.70;99.90;;;;;;5031930;28;20520;-72
2022/03/05 05:00:07;;;;;;;15.18;7.63;;;-1.70;99.90;;;;;;5035915;28;20045;-71
2022/03/05 05:02:33;;;;;;;13.85;6.93;;;-1.70;99.90;;;;;;5039291;28;20055;-71
2022/03/05 05:04:59;;;;;;;12.85;7.00;;;-1.70;99.90;;;;;;5040048;28;20048;-71
2022/03/05 05:07:24;;;;;;;15.35;6.80;;;-1.70;99.90;;;;;;5061736;28;20117;-72
2022/03/05 05:09:50;;;;;;;16.38;7.47;;;-1.70;99.90;;;;;;5040951;28;20560;-71
2022/03/05 05:12:15;;;;;;;14.63;6.47;;;-1.70;99.90;;;;;;5045399;28;20043;-72
2022/03/05 05:14:41;;;;;;;14.93;7.22;;;-1.70;99.90;;;;;;5046114;28;20045;-71
2022/03/05 05:17:07;;;;;;;12.95;7.18;;;-1.70;99.90;;;;;;5043976;28;20120;-71
2022/03/05 05:19:33;;;;;;;16.00;7.05;;;-1.80;99.90;;;;;;5047855;28;20040;-71
2022/03/05 05:22:03;;;;;;;14.55;7.15;;;-1.80;99.90;;;;;;5042240;28;20060;-71
2022/03/05 05:24:31;;;;;;;12.93;6.97;;;-1.80;99.90;;;;;;5042920;28;20040;-71
2022/03/05 05:26:57;;;;;;;16.40;7.65;;;-1.80;99.90;;;;;;5038302;28;20049;-71
2022/03/05 05:29:25;;;;;;;15.65;6.43;;;-1.80;99.90;;;;;;5040367;28;20064;-71
2022/03/05 05:31:50;;;;;;;14.43;6.70;;;-1.80;99.90;;;;;;5042379;28;20040;-71
2022/03/05 05:34:17;;;;;;;16.25;6.85;;;-1.90;99.90;;;;;;5048120;28;20029;-71
2022/03/05 05:36:43;;;;;;;14.13;6.95;;;-1.90;99.90;;;;;;5039776;28;20045;-70
2022/03/05 05:39:10;;;;;;;16.85;8.00;;;-1.80;99.90;;;;;;5046620;28;20028;-71
2022/03/05 05:41:37;;;;;;;12.00;6.30;;;-1.90;99.90;;;;;;5061902;28;20162;-71
2022/03/05 05:44:10;;;;;;;12.35;6.75;;;-1.90;99.90;;;;;;5048058;28;20040;-71
2022/03/05 05:46:36;;;;;;;13.88;6.82;;;-1.90;99.90;;;;;;5047828;28;20052;-71
2022/03/05 05:49:02;;;;;;;15.02;7.35;;;-1.90;99.90;;;;;;5057392;28;20056;-71
2022/03/05 05:51:28;;;;;;;15.82;7.82;;;-1.90;99.90;;;;;;5042478;28;20044;-71
2022/03/05 05:53:55;;;;;;;14.07;7.13;;;-2.00;99.90;;;;;;5053980;28;20475;-71
2022/03/05 05:56:21;;;;;;;14.38;7.20;;;-2.00;99.90;;;;;;5052026;28;20041;-71
2022/03/05 05:58:49;;;;;;;13.93;7.07;;;-2.00;99.90;;;;;;5042728;28;20098;-71
2022/03/05 06:01:16;;;;;;;15.35;7.32;;;-2.00;99.90;;;;;;5041858;28;20071;-72
2022/03/05 06:03:44;;;;;;;12.82;6.82;;;-2.00;99.90;;;;;;5048759;28;20066;-71
2022/03/05 06:06:13;;;;;;;13.98;6.85;;;-2.00;99.90;;;;;;5041929;28;20049;-72
2022/03/05 06:08:39;;;;;;;14.20;6.68;;;-2.00;99.90;;;;;;5046432;28;20541;-72
2022/03/05 06:11:05;;;;;;;13.63;6.55;;;-2.00;99.90;;;;;;5053198;28;20526;-72
2022/03/05 06:13:30;;;;;;;14.50;7.90;;;-2.00;99.90;;;;;;5049793;28;20077;-72
2022/03/05 06:15:56;;;;;;;15.50;7.30;;;-2.00;99.90;;;;;;5047098;28;20147;-72
2022/03/05 06:18:21;;;;;;;16.52;7.07;;;-2.00;99.90;;;;;;5050900;28;20048;-72
2022/03/05 06:20:47;;;;;;;13.20;6.68;;;-2.00;99.90;;;;;;5053562;28;20040;-72
2022/03/05 06:23:13;;;;;;;18.25;7.18;;;-2.00;99.90;;;;;;5044671;28;20032;-73
2022/03/05 06:25:38;;;;;;;16.88;6.50;;;-2.00;99.90;;;;;;5052230;28;20470;-72
2022/03/05 06:28:04;;;;;;;16.15;7.40;;;-2.00;99.90;;;;;;5047490;28;20124;-71
2022/03/05 06:30:30;;;;;;;12.90;7.13;;;-2.00;99.90;;;;;;5052523;28;20129;-72
2022/03/05 06:32:56;;;;;;;15.55;7.65;;;-1.90;99.90;;;;;;5051934;28;20088;-73
2022/03/05 06:35:21;;;;;;;13.90;7.22;;;-2.00;99.90;;;;;;5057557;28;20080;-72
2022/03/05 06:37:47;;;;;;;13.25;6.57;;;-1.90;99.90;;;;;;5042280;28;20048;-72
2022/03/05 06:40:13;;;;;;;13.88;7.75;;;-1.90;99.90;;;;;;5067007;28;20182;-72
2022/03/05 06:42:39;;;;;;;13.68;6.97;;;-1.90;99.90;;;;;;5051099;28;20092;-72
2022/03/05 06:45:08;;;;;;;14.55;6.63;;;-1.00;99.90;;;;;;5065497;28;20052;-72
2022/03/05 06:47:34;;;;;;;15.02;7.68;;;-1.90;99.90;;;;;;5043425;28;20056;-72
2022/03/05 06:50:00;;;;;;;14.75;7.50;;;-1.90;99.90;;;;;;5041774;28;20045;-72
2022/03/05 06:52:26;;;;;;;17.27;7.05;;;-1.90;99.90;;;;;;5054595;28;20071;-71
2022/03/05 06:54:51;;;;;;;12.57;6.45;;;-1.80;99.90;;;;;;5057334;28;20052;-72
2022/03/05 06:57:17;;;;;;;12.95;7.07;;;-1.80;99.90;;;;;;5075431;28;20045;-72
2022/03/05 06:59:42;;;;;;;15.18;8.07;;;-1.80;99.90;;;;;;5047569;28;20123;-72
2022/03/05 07:02:08;;;;;;;12.32;6.63;;;-1.80;99.90;;;;;;5051239;28;20052;-72
2022/03/05 07:04:34;;;;;;;13.93;6.93;;;-1.70;99.90;;;;;;5049385;28;20044;-73
2022/03/05 07:07:00;;;;;;;14.07;7.20;;;-1.70;99.90;;;;;;5038274;28;20051;-72
2022/03/05 07:09:25;;;;;;;13.60;7.22;;;-1.70;99.90;;;;;;5048460;28;20044;-72
2022/03/05 07:11:51;;;;;;;14.82;7.05;;;-1.60;99.90;;;;;;5052134;28;20044;-73
2022/03/05 07:14:18;;;;;;;15.20;6.72;;;-1.60;99.90;;;;;;5046461;28;20396;-73
2022/03/05 07:16:43;;;;;;;16.00;7.93;;;-1.60;99.90;;;;;;5048875;28;20048;-72
2022/03/05 07:19:09;;;;;;;12.73;6.55;;;-1.50;99.90;;;;;;5045927;28;20036;-72
2022/03/05 07:21:35;;;;;;;18.20;7.22;;;-1.50;99.90;;;;;;5062875;28;20514;-72
2022/03/05 07:24:00;;;;;;;15.02;7.82;;;-1.40;99.90;;;;;;5042465;28;20085;-72
2022/03/05 07:26:26;;;;;;;14.82;7.53;;;-1.40;99.90;;;;;;5043178;28;20502;-72
2022/03/05 07:28:52;;;;;;;16.13;6.72;;;-1.30;99.90;;;;;;5043359;28;20041;-73
2022/03/05 07:31:17;;;;;;;16.42;8.50;;;-1.30;99.90;;;;;;5035789;28;20053;-73
2022/03/05 07:33:43;;;;;;;14.95;7.13;;;-1.00;99.90;;;;;;5040159;28;20045;-72
2022/03/05 07:36:09;;;;;;;16.17;7.32;;;-1.10;99.90;;;;;;5045764;28;20488;-72
2022/03/05 07:38:35;;;;;;;16.33;7.93;;;-1.10;99.90;;;;;;5046291;28;20045;-73
2022/03/05 07:41:01;;;;;;;16.40;7.88;;;-1.00;99.90;;;;;;5045104;28;20044;-73
2022/03/05 07:43:27;;;;;;;15.65;7.57;;;-1.00;99.90;;;;;;5068395;28;20041;-73
2022/03/05 07:45:52;;;;;;;14.52;8.18;;;-0.90;99.90;;;;;;5082210;28;20519;-72
2022/03/05 07:48:19;;;;;;;17.77;9.35;;;-0.80;99.90;;;;;;5059240;28;20061;-73
2022/03/05 07:50:46;;;;;;;17.35;8.38;;;-0.70;99.90;;;;;;5042481;28;20044;-73
2022/03/05 07:53:13;;;;;;;18.30;8.50;;;-0.40;99.90;;;;;;5036670;28;20056;-73
2022/03/05 07:55:39;;;;;;;18.75;8.20;;;-0.60;99.90;;;;;;5069825;28;20170;-75
2022/03/05 07:58:04;;;;;;;18.70;8.27;;;-0.50;99.90;;;;;;5042698;28;20119;-73
2022/03/05 08:00:30;;;;;;;18.13;9.25;;;-0.40;99.90;;;;;;5041436;28;20400;-73
2022/03/05 08:02:56;;;;;;;16.58;9.13;;;-0.30;99.90;;;;;;5037947;28;20072;-74
2022/03/05 08:05:21;;;;;;;17.42;9.30;;;-0.30;99.90;;;;;;5045538;28;20045;-74
2022/03/05 08:07:47;;;;;;;19.15;9.00;;;-0.30;99.90;;;;;;5044167;28;20049;-73
2022/03/05 08:10:13;;;;;;;18.52;9.07;;;-0.20;99.90;;;;;;5059206;28;20507;-73
2022/03/05 08:12:38;;;;;;;17.30;8.88;;;-0.20;99.90;;;;;;5043414;28;20048;-73
2022/03/05 08:15:06;;;;;;;21.17;10.02;;;-0.10;99.90;;;;;;5043297;28;20044;-73
2022/03/05 08:17:31;;;;;;;19.83;9.13;;;-0.10;99.90;;;;;;5047079;28;20397;-73
2022/03/05 08:19:57;;;;;;;16.15;8.68;;;0.00;99.90;;;;;;5043173;28;20045;-74
2022/03/05 08:22:23;;;;;;;17.73;9.00;;;0.00;99.90;;;;;;5048530;28;20400;-73
2022/03/05 08:24:48;;;;;;;17.02;9.10;;;0.10;99.90;;;;;;5049192;28;21233;-74
2022/03/05 08:27:14;;;;;;;18.63;9.60;;;0.20;99.90;;;;;;5042966;28;20060;-72
2022/03/05 08:29:40;;;;;;;20.90;10.20;;;0.30;99.90;;;;;;5042831;28;20128;-72
2022/03/05 08:32:06;;;;;;;18.40;9.73;;;0.30;99.90;;;;;;5056393;28;20048;-72
2022/03/05 08:34:31;;;;;;;19.23;9.88;;;0.40;99.90;;;;;;5040164;28;20500;-72
2022/03/05 08:36:57;;;;;;;21.60;9.90;;;0.60;99.90;;;;;;5042023;28;20183;-72
2022/03/05 08:39:23;;;;;;;20.58;10.98;;;0.50;99.90;;;;;;5034226;28;20084;-72
2022/03/05 08:41:49;;;;;;;17.00;9.05;;;0.60;99.90;;;;;;5041902;28;20415;-72
2022/03/05 08:44:14;;;;;;;16.27;9.48;;;0.70;99.90;;;;;;5042464;28;20037;-73
2022/03/05 08:46:40;;;;;;;20.83;9.57;;;1.00;99.90;;;;;;5048922;28;22361;-73
2022/03/05 08:49:06;;;;;;;19.52;9.90;;;0.80;99.90;;;;;;5041093;28;20061;-73
2022/03/05 08:51:31;;;;;;;17.60;9.18;;;0.90;99.90;;;;;;5035337;28;20056;-73
2022/03/05 08:53:57;;;;;;;16.70;8.70;;;0.90;99.90;;;;;;5036864;28;20136;-73
2022/03/05 08:56:23;;;;;;;17.52;9.75;;;1.00;99.90;;;;;;5041080;28;20052;-73
2022/03/05 08:58:49;;;;;;;17.60;9.23;;;1.00;99.90;;;;;;5043866;28;20147;-72
2022/03/05 09:01:15;;;;;;;17.83;8.68;;;1.10;99.90;;;;;;5042239;28;20570;-72
2022/03/05 09:03:41;;;;;;;19.02;8.88;;;1.20;99.90;;;;;;5047914;28;20056;-72
2022/03/05 09:06:06;;;;;;;20.83;9.85;;;1.20;99.90;;;;;;5043116;28;20049;-72
2022/03/05 09:08:33;;;;;;;16.67;9.10;;;1.30;99.90;;;;;;5038942;28;20052;-72
2022/03/05 09:10:58;;;;;;;18.10;9.13;;;1.30;99.90;;;;;;5071729;28;20045;-71
2022/03/05 09:13:24;;;;;;;18.27;9.57;;;1.40;99.90;;;;;;5046996;28;20086;-71
2022/03/05 09:15:49;;;;;;;22.70;9.52;;;1.50;99.90;;;;;;5037268;28;20052;-71
2022/03/05 09:18:15;;;;;;;17.80;8.68;;;1.50;99.90;;;;;;5036442;28;22063;-71
2022/03/05 09:20:45;;;;;;;22.50;9.32;;;1.60;99.90;;;;;;5044775;28;20044;-71
2022/03/05 09:23:12;;;;;;;17.60;9.57;;;1.70;99.90;;;;;;5033470;28;20037;-72
2022/03/05 09:25:37;;;;;;;20.52;9.25;;;1.80;99.90;;;;;;5044044;28;20057;-71
2022/03/05 09:28:03;;;;;;;18.48;8.57;;;1.90;99.90;;;;;;5070168;28;20461;-71
2022/03/05 09:30:29;;;;;;;15.48;8.18;;;1.90;99.90;;;;;;5076150;28;20495;-71
2022/03/05 09:32:54;;;;;;;18.50;9.05;;;2.10;99.90;;;;;;5075002;28;20037;-71
2022/03/05 09:35:20;;;;;;;20.08;9.43;;;2.20;99.90;;;;;;5032075;28;20045;-71
2022/03/05 09:37:46;;;;;;;20.20;9.55;;;2.40;99.90;;;;;;5071799;28;20118;-71
2022/03/05 09:40:12;;;;;;;17.63;9.00;;;2.50;99.90;;;;;;5068528;28;20041;-72
2022/03/05 09:42:45;;;;;;;19.10;9.73;;;2.60;99.90;;;;;;5044400;28;20377;-72
2022/03/05 09:45:13;;;;;;;21.45;10.48;;;2.80;99.90;;;;;;5039501;28;20112;-72
2022/03/05 09:47:40;;;;;;;18.98;9.55;;;2.90;99.90;;;;;;5034788;28;20058;-73
2022/03/05 09:50:07;;;;;;;21.63;10.38;;;3.00;99.90;;;;;;5019230;28;20050;-72
2022/03/05 09:52:34;;;;;;;22.00;10.15;;;3.10;99.90;;;;;;5018144;28;20046;-73
2022/03/05 09:55:00;;;;;;;18.40;9.35;;;3.30;99.90;;;;;;5023794;28;20050;-73
2022/03/05 09:57:25;;;;;;;21.52;10.10;;;3.50;99.90;;;;;;5017147;28;20038;-72
2022/03/05 09:59:51;;;;;;;22.23;11.07;;;3.50;99.90;;;;;;5019610;28;20111;-71
2022/03/05 10:02:18;;;;;;;20.80;9.65;;;3.60;99.90;;;;;;5026967;28;20048;-72
2022/03/05 10:04:43;;;;;;;23.77;10.20;;;3.80;99.90;;;;;;5020308;28;20057;-72
2022/03/05 10:07:14;;;;;;;22.88;10.75;;;3.90;99.90;;;;;;5018737;28;20058;-72
2022/03/05 10:09:43;;;;;;;21.52;11.07;;;4.00;99.90;;;;;;5016103;28;20892;-71
2022/03/05 10:12:25;;;;;;;18.65;10.10;;;4.10;99.90;;;;;;5018822;28;20125;-71
2022/03/05 10:15:11;;;;;;;20.35;10.90;;;4.20;99.90;;;;;;5022834;28;20053;-72
2022/03/05 10:18:00;;;;;;;18.90;9.75;;;4.30;99.90;;;;;;5018336;28;20103;-71
2022/03/05 10:20:28;;;;;;;19.50;9.90;;;4.40;99.90;;;;;;5022164;28;20050;-71
2022/03/05 10:22:57;;;;;;;18.10;9.50;;;4.60;99.90;;;;;;5021061;28;20077;-72
2022/03/05 10:25:29;;;;;;;19.48;9.75;;;4.70;99.90;;;;;;5022651;28;20087;-72
2022/03/05 10:28:03;;;;;;;21.33;10.75;;;4.80;99.90;;;;;;5020362;28;20041;-72
2022/03/05 10:30:40;;;;;;;19.58;10.70;;;4.80;99.90;;;;;;5023733;28;20052;-72
2022/03/05 10:33:08;;;;;;;19.73;9.75;;;4.90;99.90;;;;;;5022470;28;20041;-74
2022/03/05 10:35:34;;;;;;;22.20;11.55;;;4.90;99.90;;;;;;5024113;28;20060;-74
2022/03/05 10:38:01;;;;;;;20.63;10.20;;;5.00;99.90;;;;;;5022001;28;20141;-71
2022/03/05 10:40:35;;;;;;;22.75;11.05;;;5.10;99.90;;;;;;5025707;28;20048;-70
2022/03/05 10:43:03;;;;;;;22.30;10.98;;;5.20;99.90;;;;;;5015568;28;20136;-71
2022/03/05 10:45:29;;;;;;;20.23;10.13;;;5.30;99.90;;;;;;5021123;28;20037;-72
2022/03/05 10:47:57;;;;;;;22.92;10.98;;;5.30;99.90;;;;;;5034198;28;20050;-71
2022/03/05 10:50:27;;;;;;;20.75;11.30;;;5.40;99.90;;;;;;5041776;28;20139;-75
2022/03/05 10:53:00;;;;;;;19.67;11.50;;;5.60;99.90;;;;;;5070540;28;20063;-73
2022/03/05 10:55:28;;;;;;;19.80;11.00;;;5.70;99.90;;;;;;5066620;28;20041;-74
2022/03/05 10:58:06;;;;;;;22.95;10.93;;;5.80;99.90;;;;;;5044637;28;20470;-74
2022/03/05 11:00:32;;;;;;;19.33;10.25;;;5.80;99.90;;;;;;5040012;28;20095;-74
2022/03/05 11:03:00;;;;;;;23.90;11.70;;;6.50;99.90;;;;;;5042844;28;20045;-74
2022/03/05 11:05:27;;;;;;;23.30;11.90;;;6.10;99.90;;;;;;5048000;28;20046;-74
2022/03/05 11:07:54;;;;;;;22.05;11.48;;;6.20;99.90;;;;;;5035077;28;20079;-74
2022/03/05 11:10:22;;;;;;;22.77;11.30;;;6.20;99.90;;;;;;5036894;28;20037;-74
2022/03/05 11:12:52;;;;;;;23.05;11.52;;;6.40;99.90;;;;;;5037262;28;20120;-74
2022/03/05 11:15:18;;;;;;;23.98;11.25;;;6.50;99.90;;;;;;5045381;28;20041;-73
2022/03/05 11:17:47;;;;;;;22.67;11.93;;;6.60;99.90;;;;;;5034398;28;20049;-74
2022/03/05 11:20:14;;;;;;;19.70;11.52;;;6.80;99.90;;;;;;5041548;28;20107;-74
2022/03/05 11:22:41;;;;;;;23.13;11.70;;;6.90;99.90;;;;;;5067404;28;20056;-74
2022/03/05 11:25:11;;;;;;;25.88;12.48;;;7.00;99.90;;;;;;5040504;28;20041;-74
2022/03/05 11:27:37;;;;;;;23.63;11.85;;;7.00;99.90;;;;;;5040070;28;20057;-78
2022/03/05 11:30:07;;;;;;;23.75;11.98;;;7.00;99.90;;;;;;5038145;28;20048;-74
2022/03/05 11:32:37;;;;;;;20.23;11.10;;;7.10;99.90;;;;;;5042923;28;20041;-74
2022/03/05 11:35:30;;;;;;;24.98;12.02;;;7.10;99.90;;;;;;5042949;28;20048;-73
2022/03/05 11:37:56;;;;;;;24.65;13.00;;;7.20;99.90;;;;;;5035366;28;20037;-74
2022/03/05 11:40:37;;;;;;;23.38;12.18;;;7.30;99.90;;;;;;5035953;28;20056;-74
2022/03/05 11:43:17;;;;;;;22.30;11.32;;;7.40;99.90;;;;;;5067390;28;20085;-79
2022/03/05 11:46:01;;;;;;;23.23;11.73;;;7.40;99.90;;;;;;5040240;28;20044;-77
2022/03/05 11:48:28;;;;;;;21.90;11.27;;;7.50;99.90;;;;;;5039817;28;20559;-76
2022/03/05 11:51:00;;;;;;;22.02;12.20;;;7.50;99.90;;;;;;5035382;28;20671;-76
2022/03/05 11:53:27;;;;;;;23.55;11.75;;;7.60;99.90;;;;;;5036992;28;20045;-76
2022/03/05 11:55:53;;;;;;;19.73;10.90;;;7.70;99.90;;;;;;5067551;28;20501;-76
2022/03/05 11:58:26;;;;;;;24.70;11.30;;;7.80;99.90;;;;;;5037559;28;20569;-76
2022/03/05 12:00:52;;;;;;;21.05;12.05;;;7.80;99.90;;;;;;5040677;28;20120;-77
2022/03/05 12:03:38;;;;;;;23.13;11.88;;;7.90;99.90;;;;;;5040885;28;20132;-80
2022/03/05 12:06:04;;;;;;;18.90;10.75;;;8.00;99.90;;;;;;5068552;28;20041;-80
2022/03/05 12:08:30;;;;;;;21.42;11.38;;;8.10;99.90;;;;;;5038226;28;20046;-79
2022/03/05 12:11:12;;;;;;;21.05;12.10;;;8.20;99.90;;;;;;5036319;28;20060;-79
2022/03/05 12:13:46;;;;;;;23.35;11.75;;;8.30;99.90;;;;;;5067879;28;20048;-81
2022/03/05 12:16:27;;;;;;;19.98;11.05;;;8.40;99.90;;;;;;5035852;28;20049;-81
2022/03/05 12:18:56;;;;;;;20.80;11.90;;;8.50;99.90;;;;;;5040347;28;20470;-79
2022/03/05 12:21:29;;;;;;;22.95;12.68;;;8.50;99.90;;;;;;5038205;28;20049;-82
2022/03/05 12:24:08;;;;;;;22.00;11.93;;;8.60;99.90;;;;;;5040889;28;20469;-80
2022/03/05 12:26:45;;;;;;;21.60;12.05;;;8.70;99.90;;;;;;5043242;28;20385;-78
2022/03/05 12:29:11;;;;;;;21.45;12.10;;;8.80;99.90;;;;;;5036733;28;20049;-77
2022/03/05 12:31:42;;;;;;;21.40;12.13;;;8.80;99.90;;;;;;5069530;28;20045;-78
2022/03/05 12:34:08;;;;;;;21.55;12.25;;;8.90;99.90;;;;;;5033929;28;20096;-78
2022/03/05 12:36:40;;;;;;;21.42;11.68;;;8.90;99.90;;;;;;5038585;28;20057;-78